sensor_id;sensor_type;location;lat;lon;timestamp;P1;durP1;ratioP1;P2;durP2;ratioP2
18172;SDS011;9211;48.818;9.312;2023-01-25T00:02:05;33.13;;;17.13;;
18172;SDS011;9211;48.818;9.312;2023-01-25T00:04:32;31.83;;;16.83;;
18172;SDS011;9211;48.818;9.312;2023-01-25T00:06:59;29.75;;;17.17;;
18172;SDS011;9211;48.818;9.312;2023-01-25T00:09:26;28.58;;;16.42;;
18172;SDS011;9211;48.818;9.312;2023-01-25T00:11:53;30.45;;;17.00;;
18172;SDS011;9211;48.818;9.312;2023-01-25T00:14:22;33.05;;;17.27;;
18172;SDS011;9211;48.818;9.312;2023-01-25T00:16:51;31.50;;;17.13;;
18172;SDS011;9211;48.818;9.312;2023-01-25T00:19:18;30.00;;;17.10;;
18172;SDS011;9211;48.818;9.312;2023-01-25T00:21:45;30.83;;;16.67;;
18172;SDS011;9211;48.818;9.312;2023-01-25T00:24:12;32.65;;;17.63;;
18172;SDS011;9211;48.818;9.312;2023-01-25T00:26:39;32.00;;;17.27;;
18172;SDS011;9211;48.818;9.312;2023-01-25T00:29:09;31.48;;;17.42;;
18172;SDS011;9211;48.818;9.312;2023-01-25T00:35:20;31.75;;;17.35;;
18172;SDS011;9211;48.818;9.312;2023-01-25T00:37:47;32.13;;;17.37;;
18172;SDS011;9211;48.818;9.312;2023-01-25T00:40:19;31.52;;;17.48;;
18172;SDS011;9211;48.818;9.312;2023-01-25T00:42:46;31.95;;;17.35;;
18172;SDS011;9211;48.818;9.312;2023-01-25T00:45:13;34.60;;;17.33;;
18172;SDS011;9211;48.818;9.312;2023-01-25T00:47:40;35.08;;;18.45;;
18172;SDS011;9211;48.818;9.312;2023-01-25T00:50:08;31.65;;;17.33;;
18172;SDS011;9211;48.818;9.312;2023-01-25T00:52:39;31.80;;;17.15;;
18172;SDS011;9211;48.818;9.312;2023-01-25T00:55:07;32.95;;;17.60;;
18172;SDS011;9211;48.818;9.312;2023-01-25T00:57:34;32.55;;;17.48;;
18172;SDS011;9211;48.818;9.312;2023-01-25T01:00:02;33.13;;;18.02;;
18172;SDS011;9211;48.818;9.312;2023-01-25T01:02:30;33.90;;;17.15;;
18172;SDS011;9211;48.818;9.312;2023-01-25T01:04:58;33.38;;;17.80;;
18172;SDS011;9211;48.818;9.312;2023-01-25T01:07:25;33.13;;;17.42;;
18172;SDS011;9211;48.818;9.312;2023-01-25T01:09:54;29.98;;;17.13;;
18172;SDS011;9211;48.818;9.312;2023-01-25T01:12:23;30.70;;;16.52;;
18172;SDS011;9211;48.818;9.312;2023-01-25T01:18:32;31.65;;;17.63;;
18172;SDS011;9211;48.818;9.312;2023-01-25T01:20:59;31.63;;;16.83;;
18172;SDS011;9211;48.818;9.312;2023-01-25T01:23:27;31.58;;;16.98;;
18172;SDS011;9211;48.818;9.312;2023-01-25T01:25:57;30.77;;;16.87;;
18172;SDS011;9211;48.818;9.312;2023-01-25T01:28:26;33.92;;;16.83;;
18172;SDS011;9211;48.818;9.312;2023-01-25T01:30:53;32.30;;;17.02;;
18172;SDS011;9211;48.818;9.312;2023-01-25T01:33:27;29.17;;;16.58;;
18172;SDS011;9211;48.818;9.312;2023-01-25T01:35:54;30.48;;;16.80;;
18172;SDS011;9211;48.818;9.312;2023-01-25T01:38:22;31.50;;;16.67;;
18172;SDS011;9211;48.818;9.312;2023-01-25T01:40:49;30.13;;;17.00;;
18172;SDS011;9211;48.818;9.312;2023-01-25T01:43:18;31.13;;;16.80;;
18172;SDS011;9211;48.818;9.312;2023-01-25T01:45:48;32.45;;;17.33;;
18172;SDS011;9211;48.818;9.312;2023-01-25T01:48:27;33.95;;;17.17;;
18172;SDS011;9211;48.818;9.312;2023-01-25T01:50:59;30.85;;;17.15;;
18172;SDS011;9211;48.818;9.312;2023-01-25T01:53:28;32.33;;;17.02;;
18172;SDS011;9211;48.818;9.312;2023-01-25T01:55:59;33.72;;;17.48;;
18172;SDS011;9211;48.818;9.312;2023-01-25T01:58:29;36.85;;;18.23;;
18172;SDS011;9211;48.818;9.312;2023-01-25T02:00:57;30.88;;;17.15;;
18172;SDS011;9211;48.818;9.312;2023-01-25T02:03:25;33.83;;;17.75;;
18172;SDS011;9211;48.818;9.312;2023-01-25T02:05:54;30.45;;;16.35;;
18172;SDS011;9211;48.818;9.312;2023-01-25T02:08:27;36.42;;;17.85;;
18172;SDS011;9211;48.818;9.312;2023-01-25T02:10:58;33.58;;;18.02;;
18172;SDS011;9211;48.818;9.312;2023-01-25T02:13:26;33.38;;;17.58;;
18172;SDS011;9211;48.818;9.312;2023-01-25T02:15:55;34.03;;;17.60;;
18172;SDS011;9211;48.818;9.312;2023-01-25T02:18:22;31.55;;;17.90;;
18172;SDS011;9211;48.818;9.312;2023-01-25T02:20:54;31.33;;;16.50;;
18172;SDS011;9211;48.818;9.312;2023-01-25T02:23:24;34.05;;;17.65;;
18172;SDS011;9211;48.818;9.312;2023-01-25T02:25:58;31.73;;;16.70;;
18172;SDS011;9211;48.818;9.312;2023-01-25T02:28:28;31.20;;;16.75;;
18172;SDS011;9211;48.818;9.312;2023-01-25T02:30:59;32.87;;;17.03;;
18172;SDS011;9211;48.818;9.312;2023-01-25T02:33:26;33.80;;;17.55;;
18172;SDS011;9211;48.818;9.312;2023-01-25T02:35:55;31.65;;;16.65;;
18172;SDS011;9211;48.818;9.312;2023-01-25T02:38:25;31.85;;;16.63;;
18172;SDS011;9211;48.818;9.312;2023-01-25T02:40:56;31.10;;;16.50;;
18172;SDS011;9211;48.818;9.312;2023-01-25T02:43:30;32.78;;;16.83;;
18172;SDS011;9211;48.818;9.312;2023-01-25T02:46:02;30.90;;;16.42;;
18172;SDS011;9211;48.818;9.312;2023-01-25T02:48:35;29.33;;;15.85;;
18172;SDS011;9211;48.818;9.312;2023-01-25T02:51:02;33.27;;;17.60;;
18172;SDS011;9211;48.818;9.312;2023-01-25T02:53:32;30.83;;;16.45;;
18172;SDS011;9211;48.818;9.312;2023-01-25T02:56:00;30.77;;;16.23;;
18172;SDS011;9211;48.818;9.312;2023-01-25T02:58:29;30.70;;;16.27;;
18172;SDS011;9211;48.818;9.312;2023-01-25T03:03:31;28.38;;;15.30;;
18172;SDS011;9211;48.818;9.312;2023-01-25T03:05:58;30.45;;;15.68;;
18172;SDS011;9211;48.818;9.312;2023-01-25T03:08:27;27.13;;;14.80;;
18172;SDS011;9211;48.818;9.312;2023-01-25T03:10:55;24.67;;;13.35;;
18172;SDS011;9211;48.818;9.312;2023-01-25T03:13:25;24.55;;;13.35;;
18172;SDS011;9211;48.818;9.312;2023-01-25T03:15:57;24.27;;;13.23;;
18172;SDS011;9211;48.818;9.312;2023-01-25T03:18:25;21.73;;;12.40;;
18172;SDS011;9211;48.818;9.312;2023-01-25T03:20:52;20.05;;;11.38;;
18172;SDS011;9211;48.818;9.312;2023-01-25T03:23:19;20.50;;;11.07;;
18172;SDS011;9211;48.818;9.312;2023-01-25T03:25:46;18.73;;;10.23;;
18172;SDS011;9211;48.818;9.312;2023-01-25T03:28:16;19.60;;;10.13;;
18172;SDS011;9211;48.818;9.312;2023-01-25T03:30:51;17.88;;;9.48;;
18172;SDS011;9211;48.818;9.312;2023-01-25T03:33:18;17.87;;;10.03;;
18172;SDS011;9211;48.818;9.312;2023-01-25T03:35:45;16.48;;;9.52;;
18172;SDS011;9211;48.818;9.312;2023-01-25T03:38:17;16.65;;;9.40;;
18172;SDS011;9211;48.818;9.312;2023-01-25T03:40:45;17.38;;;9.50;;
18172;SDS011;9211;48.818;9.312;2023-01-25T03:43:13;18.58;;;9.77;;
18172;SDS011;9211;48.818;9.312;2023-01-25T03:45:40;19.70;;;10.35;;
18172;SDS011;9211;48.818;9.312;2023-01-25T03:48:08;18.10;;;9.70;;
18172;SDS011;9211;48.818;9.312;2023-01-25T03:50:36;18.55;;;10.02;;
18172;SDS011;9211;48.818;9.312;2023-01-25T03:53:04;17.70;;;9.23;;
18172;SDS011;9211;48.818;9.312;2023-01-25T03:55:34;17.92;;;10.05;;
18172;SDS011;9211;48.818;9.312;2023-01-25T03:58:01;21.37;;;10.10;;
18172;SDS011;9211;48.818;9.312;2023-01-25T04:00:28;22.38;;;9.95;;
18172;SDS011;9211;48.818;9.312;2023-01-25T04:02:59;19.50;;;9.70;;
18172;SDS011;9211;48.818;9.312;2023-01-25T04:05:28;18.27;;;9.50;;
18172;SDS011;9211;48.818;9.312;2023-01-25T04:07:56;18.00;;;9.25;;
18172;SDS011;9211;48.818;9.312;2023-01-25T04:10:31;16.95;;;9.35;;
18172;SDS011;9211;48.818;9.312;2023-01-25T04:12:58;18.50;;;9.70;;
18172;SDS011;9211;48.818;9.312;2023-01-25T04:15:25;21.15;;;9.55;;
18172;SDS011;9211;48.818;9.312;2023-01-25T04:17:55;19.55;;;9.90;;
18172;SDS011;9211;48.818;9.312;2023-01-25T04:20:22;16.37;;;9.30;;
18172;SDS011;9211;48.818;9.312;2023-01-25T04:22:51;16.58;;;9.52;;
18172;SDS011;9211;48.818;9.312;2023-01-25T04:25:23;18.27;;;9.48;;
18172;SDS011;9211;48.818;9.312;2023-01-25T04:27:52;16.53;;;9.60;;
18172;SDS011;9211;48.818;9.312;2023-01-25T04:30:19;16.67;;;9.50;;
18172;SDS011;9211;48.818;9.312;2023-01-25T04:32:47;15.57;;;9.20;;
18172;SDS011;9211;48.818;9.312;2023-01-25T04:35:28;18.02;;;9.55;;
18172;SDS011;9211;48.818;9.312;2023-01-25T04:37:57;19.33;;;10.05;;
18172;SDS011;9211;48.818;9.312;2023-01-25T04:40:32;17.73;;;9.27;;
18172;SDS011;9211;48.818;9.312;2023-01-25T04:42:59;17.10;;;9.48;;
18172;SDS011;9211;48.818;9.312;2023-01-25T04:45:27;18.92;;;9.90;;
18172;SDS011;9211;48.818;9.312;2023-01-25T04:47:55;17.05;;;9.88;;
18172;SDS011;9211;48.818;9.312;2023-01-25T04:50:25;17.73;;;9.63;;
18172;SDS011;9211;48.818;9.312;2023-01-25T04:52:52;19.05;;;9.82;;
18172;SDS011;9211;48.818;9.312;2023-01-25T04:55:22;19.67;;;9.77;;
18172;SDS011;9211;48.818;9.312;2023-01-25T04:57:51;17.25;;;9.35;;
18172;SDS011;9211;48.818;9.312;2023-01-25T05:00:18;17.38;;;9.88;;
18172;SDS011;9211;48.818;9.312;2023-01-25T05:02:46;18.65;;;9.55;;
18172;SDS011;9211;48.818;9.312;2023-01-25T05:05:14;19.95;;;10.35;;
18172;SDS011;9211;48.818;9.312;2023-01-25T05:07:44;16.38;;;9.40;;
18172;SDS011;9211;48.818;9.312;2023-01-25T05:10:11;17.27;;;9.50;;
18172;SDS011;9211;48.818;9.312;2023-01-25T05:12:54;18.20;;;10.05;;
18172;SDS011;9211;48.818;9.312;2023-01-25T05:15:21;18.73;;;10.43;;
18172;SDS011;9211;48.818;9.312;2023-01-25T05:17:48;19.20;;;10.20;;
18172;SDS011;9211;48.818;9.312;2023-01-25T05:20:16;18.10;;;9.75;;
18172;SDS011;9211;48.818;9.312;2023-01-25T05:22:43;18.23;;;10.23;;
18172;SDS011;9211;48.818;9.312;2023-01-25T05:25:10;21.05;;;11.40;;
18172;SDS011;9211;48.818;9.312;2023-01-25T05:27:51;18.95;;;10.45;;
18172;SDS011;9211;48.818;9.312;2023-01-25T05:30:38;18.35;;;10.27;;
18172;SDS011;9211;48.818;9.312;2023-01-25T05:33:19;21.25;;;10.57;;
18172;SDS011;9211;48.818;9.312;2023-01-25T05:35:46;17.80;;;10.18;;
18172;SDS011;9211;48.818;9.312;2023-01-25T05:38:13;20.45;;;10.77;;
18172;SDS011;9211;48.818;9.312;2023-01-25T05:40:41;20.67;;;11.15;;
18172;SDS011;9211;48.818;9.312;2023-01-25T05:43:08;20.02;;;10.70;;
18172;SDS011;9211;48.818;9.312;2023-01-25T05:45:40;18.92;;;10.60;;
18172;SDS011;9211;48.818;9.312;2023-01-25T05:48:09;18.92;;;10.05;;
18172;SDS011;9211;48.818;9.312;2023-01-25T05:50:36;18.80;;;10.67;;
18172;SDS011;9211;48.818;9.312;2023-01-25T05:53:07;20.90;;;10.77;;
18172;SDS011;9211;48.818;9.312;2023-01-25T05:55:36;20.97;;;11.10;;
18172;SDS011;9211;48.818;9.312;2023-01-25T05:58:07;21.60;;;11.35;;
18172;SDS011;9211;48.818;9.312;2023-01-25T06:00:34;18.90;;;10.50;;
18172;SDS011;9211;48.818;9.312;2023-01-25T06:03:03;18.42;;;10.38;;
18172;SDS011;9211;48.818;9.312;2023-01-25T06:05:33;17.83;;;10.50;;
18172;SDS011;9211;48.818;9.312;2023-01-25T06:08:00;18.85;;;10.23;;
18172;SDS011;9211;48.818;9.312;2023-01-25T06:10:41;18.77;;;10.05;;
18172;SDS011;9211;48.818;9.312;2023-01-25T06:13:08;19.80;;;10.57;;
18172;SDS011;9211;48.818;9.312;2023-01-25T06:15:36;19.83;;;10.55;;
18172;SDS011;9211;48.818;9.312;2023-01-25T06:18:23;18.98;;;10.55;;
18172;SDS011;9211;48.818;9.312;2023-01-25T06:21:18;16.48;;;9.80;;
18172;SDS011;9211;48.818;9.312;2023-01-25T06:23:45;18.70;;;10.20;;
18172;SDS011;9211;48.818;9.312;2023-01-25T06:26:13;20.55;;;10.45;;
18172;SDS011;9211;48.818;9.312;2023-01-25T06:28:40;20.67;;;10.80;;
18172;SDS011;9211;48.818;9.312;2023-01-25T06:31:08;18.13;;;10.18;;
18172;SDS011;9211;48.818;9.312;2023-01-25T06:33:38;20.63;;;10.33;;
18172;SDS011;9211;48.818;9.312;2023-01-25T06:36:06;20.02;;;10.38;;
18172;SDS011;9211;48.818;9.312;2023-01-25T06:38:36;19.58;;;9.63;;
18172;SDS011;9211;48.818;9.312;2023-01-25T06:41:04;20.17;;;10.30;;
18172;SDS011;9211;48.818;9.312;2023-01-25T06:43:32;19.77;;;10.07;;
18172;SDS011;9211;48.818;9.312;2023-01-25T06:46:00;19.48;;;10.05;;
18172;SDS011;9211;48.818;9.312;2023-01-25T06:48:28;19.40;;;10.10;;
18172;SDS011;9211;48.818;9.312;2023-01-25T06:50:58;19.15;;;10.45;;
18172;SDS011;9211;48.818;9.312;2023-01-25T06:53:27;19.38;;;10.40;;
18172;SDS011;9211;48.818;9.312;2023-01-25T06:55:56;20.98;;;10.38;;
18172;SDS011;9211;48.818;9.312;2023-01-25T06:58:24;17.60;;;9.45;;
18172;SDS011;9211;48.818;9.312;2023-01-25T07:00:52;16.25;;;9.45;;
18172;SDS011;9211;48.818;9.312;2023-01-25T07:03:19;17.35;;;9.05;;
18172;SDS011;9211;48.818;9.312;2023-01-25T07:05:46;18.60;;;9.52;;
18172;SDS011;9211;48.818;9.312;2023-01-25T07:08:15;17.00;;;9.20;;
18172;SDS011;9211;48.818;9.312;2023-01-25T07:10:42;16.83;;;9.30;;
18172;SDS011;9211;48.818;9.312;2023-01-25T07:13:09;16.50;;;8.95;;
18172;SDS011;9211;48.818;9.312;2023-01-25T07:15:36;17.92;;;9.18;;
18172;SDS011;9211;48.818;9.312;2023-01-25T07:18:03;16.13;;;9.00;;
18172;SDS011;9211;48.818;9.312;2023-01-25T07:20:30;15.52;;;9.15;;
18172;SDS011;9211;48.818;9.312;2023-01-25T07:22:57;18.33;;;9.10;;
18172;SDS011;9211;48.818;9.312;2023-01-25T07:25:26;16.80;;;9.38;;
18172;SDS011;9211;48.818;9.312;2023-01-25T07:27:53;16.58;;;9.02;;
18172;SDS011;9211;48.818;9.312;2023-01-25T07:30:20;15.95;;;9.18;;
18172;SDS011;9211;48.818;9.312;2023-01-25T07:32:47;17.92;;;9.40;;
18172;SDS011;9211;48.818;9.312;2023-01-25T07:35:14;15.65;;;8.13;;
18172;SDS011;9211;48.818;9.312;2023-01-25T07:37:41;14.05;;;8.57;;
18172;SDS011;9211;48.818;9.312;2023-01-25T07:40:09;16.02;;;8.98;;
18172;SDS011;9211;48.818;9.312;2023-01-25T07:42:39;17.52;;;8.77;;
18172;SDS011;9211;48.818;9.312;2023-01-25T07:45:10;16.13;;;9.00;;
18172;SDS011;9211;48.818;9.312;2023-01-25T07:47:37;16.00;;;8.70;;
18172;SDS011;9211;48.818;9.312;2023-01-25T07:50:05;16.48;;;8.75;;
18172;SDS011;9211;48.818;9.312;2023-01-25T07:52:33;17.20;;;8.90;;
18172;SDS011;9211;48.818;9.312;2023-01-25T07:55:00;15.27;;;8.80;;
18172;SDS011;9211;48.818;9.312;2023-01-25T07:57:27;16.80;;;9.23;;
18172;SDS011;9211;48.818;9.312;2023-01-25T07:59:55;18.70;;;9.50;;
18172;SDS011;9211;48.818;9.312;2023-01-25T08:02:22;19.13;;;9.93;;
18172;SDS011;9211;48.818;9.312;2023-01-25T08:04:49;22.35;;;11.00;;
18172;SDS011;9211;48.818;9.312;2023-01-25T08:07:16;19.80;;;10.63;;
18172;SDS011;9211;48.818;9.312;2023-01-25T08:09:44;18.98;;;9.82;;
18172;SDS011;9211;48.818;9.312;2023-01-25T08:12:11;19.00;;;9.65;;
18172;SDS011;9211;48.818;9.312;2023-01-25T08:14:38;17.98;;;10.15;;
18172;SDS011;9211;48.818;9.312;2023-01-25T08:17:06;17.50;;;9.98;;
18172;SDS011;9211;48.818;9.312;2023-01-25T08:19:33;19.08;;;10.40;;
18172;SDS011;9211;48.818;9.312;2023-01-25T08:22:00;18.00;;;10.27;;
18172;SDS011;9211;48.818;9.312;2023-01-25T08:24:27;18.52;;;10.10;;
18172;SDS011;9211;48.818;9.312;2023-01-25T08:26:54;18.95;;;10.13;;
18172;SDS011;9211;48.818;9.312;2023-01-25T08:29:21;19.48;;;10.73;;
18172;SDS011;9211;48.818;9.312;2023-01-25T08:31:48;17.10;;;9.63;;
18172;SDS011;9211;48.818;9.312;2023-01-25T08:34:16;20.55;;;10.70;;
18172;SDS011;9211;48.818;9.312;2023-01-25T08:36:43;18.75;;;10.10;;
18172;SDS011;9211;48.818;9.312;2023-01-25T08:39:10;20.20;;;10.52;;
18172;SDS011;9211;48.818;9.312;2023-01-25T08:41:38;18.37;;;10.40;;
18172;SDS011;9211;48.818;9.312;2023-01-25T08:44:06;17.58;;;9.80;;
18172;SDS011;9211;48.818;9.312;2023-01-25T08:46:33;18.23;;;9.38;;
18172;SDS011;9211;48.818;9.312;2023-01-25T08:49:00;15.55;;;9.00;;
18172;SDS011;9211;48.818;9.312;2023-01-25T08:51:29;18.52;;;10.10;;
18172;SDS011;9211;48.818;9.312;2023-01-25T08:54:00;17.98;;;9.93;;
18172;SDS011;9211;48.818;9.312;2023-01-25T08:56:28;18.33;;;9.95;;
18172;SDS011;9211;48.818;9.312;2023-01-25T08:58:55;18.48;;;10.43;;
18172;SDS011;9211;48.818;9.312;2023-01-25T09:01:22;17.33;;;9.98;;
18172;SDS011;9211;48.818;9.312;2023-01-25T09:03:49;20.23;;;10.57;;
18172;SDS011;9211;48.818;9.312;2023-01-25T09:06:16;20.30;;;10.25;;
18172;SDS011;9211;48.818;9.312;2023-01-25T09:08:46;17.60;;;10.40;;
18172;SDS011;9211;48.818;9.312;2023-01-25T09:11:14;16.90;;;9.80;;
18172;SDS011;9211;48.818;9.312;2023-01-25T09:13:43;17.23;;;10.13;;
18172;SDS011;9211;48.818;9.312;2023-01-25T09:16:10;19.27;;;9.93;;
18172;SDS011;9211;48.818;9.312;2023-01-25T09:18:39;19.27;;;10.30;;
18172;SDS011;9211;48.818;9.312;2023-01-25T09:21:08;19.83;;;10.60;;
18172;SDS011;9211;48.818;9.312;2023-01-25T09:23:37;17.55;;;9.68;;
18172;SDS011;9211;48.818;9.312;2023-01-25T09:26:05;18.30;;;10.20;;
18172;SDS011;9211;48.818;9.312;2023-01-25T09:28:32;17.77;;;9.93;;
18172;SDS011;9211;48.818;9.312;2023-01-25T09:31:00;19.58;;;10.48;;
18172;SDS011;9211;48.818;9.312;2023-01-25T09:33:49;18.30;;;10.43;;
18172;SDS011;9211;48.818;9.312;2023-01-25T09:36:17;19.15;;;10.32;;
18172;SDS011;9211;48.818;9.312;2023-01-25T09:38:44;18.80;;;9.98;;
18172;SDS011;9211;48.818;9.312;2023-01-25T09:41:40;18.50;;;10.43;;
18172;SDS011;9211;48.818;9.312;2023-01-25T09:44:30;17.52;;;10.27;;
18172;SDS011;9211;48.818;9.312;2023-01-25T09:47:09;19.53;;;10.67;;
18172;SDS011;9211;48.818;9.312;2023-01-25T09:49:47;20.33;;;11.30;;
18172;SDS011;9211;48.818;9.312;2023-01-25T09:52:35;20.70;;;10.85;;
18172;SDS011;9211;48.818;9.312;2023-01-25T09:55:20;17.13;;;10.05;;
18172;SDS011;9211;48.818;9.312;2023-01-25T09:57:51;18.63;;;10.70;;
18172;SDS011;9211;48.818;9.312;2023-01-25T10:00:22;20.80;;;11.32;;
18172;SDS011;9211;48.818;9.312;2023-01-25T10:02:54;21.33;;;11.30;;
18172;SDS011;9211;48.818;9.312;2023-01-25T10:05:26;19.23;;;11.00;;
18172;SDS011;9211;48.818;9.312;2023-01-25T10:07:57;21.50;;;11.32;;
18172;SDS011;9211;48.818;9.312;2023-01-25T10:10:31;24.40;;;12.47;;
18172;SDS011;9211;48.818;9.312;2023-01-25T10:13:02;23.63;;;12.60;;
18172;SDS011;9211;48.818;9.312;2023-01-25T10:15:29;21.15;;;11.48;;
18172;SDS011;9211;48.818;9.312;2023-01-25T10:18:00;20.63;;;11.70;;
18172;SDS011;9211;48.818;9.312;2023-01-25T10:20:37;20.48;;;11.63;;
18172;SDS011;9211;48.818;9.312;2023-01-25T10:23:22;20.63;;;11.32;;
18172;SDS011;9211;48.818;9.312;2023-01-25T10:26:05;19.50;;;10.93;;
18172;SDS011;9211;48.818;9.312;2023-01-25T10:28:40;20.80;;;11.65;;
18172;SDS011;9211;48.818;9.312;2023-01-25T10:31:15;20.63;;;11.50;;
18172;SDS011;9211;48.818;9.312;2023-01-25T10:33:44;20.48;;;11.68;;
18172;SDS011;9211;48.818;9.312;2023-01-25T10:36:13;22.65;;;11.50;;
18172;SDS011;9211;48.818;9.312;2023-01-25T10:38:42;20.00;;;11.23;;
18172;SDS011;9211;48.818;9.312;2023-01-25T10:41:11;23.43;;;12.93;;
18172;SDS011;9211;48.818;9.312;2023-01-25T10:43:46;29.88;;;15.43;;
18172;SDS011;9211;48.818;9.312;2023-01-25T10:46:33;24.60;;;13.40;;
18172;SDS011;9211;48.818;9.312;2023-01-25T10:49:06;23.50;;;12.33;;
18172;SDS011;9211;48.818;9.312;2023-01-25T10:51:45;22.33;;;12.02;;
18172;SDS011;9211;48.818;9.312;2023-01-25T10:54:13;25.15;;;13.05;;
18172;SDS011;9211;48.818;9.312;2023-01-25T10:56:40;23.05;;;13.10;;
18172;SDS011;9211;48.818;9.312;2023-01-25T10:59:16;23.33;;;13.40;;
18172;SDS011;9211;48.818;9.312;2023-01-25T11:01:45;24.50;;;13.88;;
18172;SDS011;9211;48.818;9.312;2023-01-25T11:04:23;24.90;;;13.23;;
18172;SDS011;9211;48.818;9.312;2023-01-25T11:06:58;22.27;;;12.73;;
18172;SDS011;9211;48.818;9.312;2023-01-25T11:09:37;24.08;;;13.80;;
18172;SDS011;9211;48.818;9.312;2023-01-25T11:12:05;23.02;;;13.55;;
18172;SDS011;9211;48.818;9.312;2023-01-25T11:14:44;25.63;;;13.70;;
18172;SDS011;9211;48.818;9.312;2023-01-25T11:17:20;25.27;;;13.77;;
18172;SDS011;9211;48.818;9.312;2023-01-25T11:20:03;23.73;;;13.35;;
18172;SDS011;9211;48.818;9.312;2023-01-25T11:22:36;21.15;;;12.75;;
18172;SDS011;9211;48.818;9.312;2023-01-25T11:25:26;23.63;;;13.38;;
18172;SDS011;9211;48.818;9.312;2023-01-25T11:28:10;24.52;;;13.40;;
18172;SDS011;9211;48.818;9.312;2023-01-25T11:30:42;24.55;;;13.73;;
18172;SDS011;9211;48.818;9.312;2023-01-25T11:33:09;23.83;;;13.55;;
18172;SDS011;9211;48.818;9.312;2023-01-25T11:35:40;25.65;;;14.25;;
18172;SDS011;9211;48.818;9.312;2023-01-25T11:38:29;23.48;;;13.15;;
18172;SDS011;9211;48.818;9.312;2023-01-25T11:40:59;23.05;;;13.15;;
18172;SDS011;9211;48.818;9.312;2023-01-25T11:43:41;24.45;;;13.50;;
18172;SDS011;9211;48.818;9.312;2023-01-25T11:46:30;25.45;;;13.88;;
18172;SDS011;9211;48.818;9.312;2023-01-25T11:49:11;25.60;;;14.75;;
18172;SDS011;9211;48.818;9.312;2023-01-25T11:51:48;24.92;;;14.48;;
18172;SDS011;9211;48.818;9.312;2023-01-25T11:54:28;27.13;;;15.00;;
18172;SDS011;9211;48.818;9.312;2023-01-25T11:57:06;29.47;;;15.93;;
18172;SDS011;9211;48.818;9.312;2023-01-25T11:59:49;28.40;;;15.30;;
18172;SDS011;9211;48.818;9.312;2023-01-25T12:02:38;26.45;;;14.68;;
18172;SDS011;9211;48.818;9.312;2023-01-25T12:05:31;27.15;;;15.45;;
18172;SDS011;9211;48.818;9.312;2023-01-25T12:08:12;25.10;;;14.38;;
18172;SDS011;9211;48.818;9.312;2023-01-25T12:10:50;30.23;;;15.43;;
18172;SDS011;9211;48.818;9.312;2023-01-25T12:13:23;27.00;;;14.60;;
18172;SDS011;9211;48.818;9.312;2023-01-25T12:16:12;25.80;;;14.18;;
18172;SDS011;9211;48.818;9.312;2023-01-25T12:18:58;28.40;;;15.55;;
18172;SDS011;9211;48.818;9.312;2023-01-25T12:21:47;27.00;;;14.65;;
18172;SDS011;9211;48.818;9.312;2023-01-25T12:24:27;26.07;;;14.67;;
18172;SDS011;9211;48.818;9.312;2023-01-25T12:27:10;26.73;;;14.65;;
18172;SDS011;9211;48.818;9.312;2023-01-25T12:29:49;28.57;;;15.33;;
18172;SDS011;9211;48.818;9.312;2023-01-25T12:32:21;26.92;;;14.52;;
18172;SDS011;9211;48.818;9.312;2023-01-25T12:34:58;26.95;;;15.00;;
18172;SDS011;9211;48.818;9.312;2023-01-25T12:37:37;26.35;;;14.88;;
18172;SDS011;9211;48.818;9.312;2023-01-25T12:40:08;27.23;;;14.52;;
18172;SDS011;9211;48.818;9.312;2023-01-25T12:42:39;30.17;;;15.30;;
18172;SDS011;9211;48.818;9.312;2023-01-25T12:45:13;31.55;;;15.70;;
18172;SDS011;9211;48.818;9.312;2023-01-25T12:47:44;27.02;;;15.18;;
18172;SDS011;9211;48.818;9.312;2023-01-25T12:50:16;27.55;;;15.07;;
18172;SDS011;9211;48.818;9.312;2023-01-25T12:52:48;29.17;;;15.60;;
18172;SDS011;9211;48.818;9.312;2023-01-25T12:55:18;28.05;;;15.60;;
18172;SDS011;9211;48.818;9.312;2023-01-25T12:57:47;28.02;;;14.80;;
18172;SDS011;9211;48.818;9.312;2023-01-25T13:00:23;25.73;;;14.30;;
18172;SDS011;9211;48.818;9.312;2023-01-25T13:03:02;27.08;;;14.77;;
18172;SDS011;9211;48.818;9.312;2023-01-25T13:05:43;28.15;;;14.75;;
18172;SDS011;9211;48.818;9.312;2023-01-25T13:08:18;26.88;;;14.80;;
18172;SDS011;9211;48.818;9.312;2023-01-25T13:11:03;30.23;;;15.77;;
18172;SDS011;9211;48.818;9.312;2023-01-25T13:13:33;27.65;;;15.52;;
18172;SDS011;9211;48.818;9.312;2023-01-25T13:16:21;29.35;;;15.77;;
18172;SDS011;9211;48.818;9.312;2023-01-25T13:18:50;27.77;;;15.27;;
18172;SDS011;9211;48.818;9.312;2023-01-25T13:21:41;28.25;;;14.95;;
18172;SDS011;9211;48.818;9.312;2023-01-25T13:24:14;30.85;;;15.65;;
18172;SDS011;9211;48.818;9.312;2023-01-25T13:26:47;30.58;;;15.30;;
18172;SDS011;9211;48.818;9.312;2023-01-25T13:29:44;31.80;;;16.45;;
18172;SDS011;9211;48.818;9.312;2023-01-25T13:32:12;30.88;;;15.85;;
18172;SDS011;9211;48.818;9.312;2023-01-25T13:34:56;29.48;;;16.00;;
18172;SDS011;9211;48.818;9.312;2023-01-25T13:37:25;27.95;;;14.93;;
18172;SDS011;9211;48.818;9.312;2023-01-25T13:39:54;27.37;;;15.53;;
18172;SDS011;9211;48.818;9.312;2023-01-25T13:42:23;31.02;;;15.70;;
18172;SDS011;9211;48.818;9.312;2023-01-25T13:44:52;27.95;;;15.38;;
18172;SDS011;9211;48.818;9.312;2023-01-25T13:47:21;28.85;;;14.95;;
18172;SDS011;9211;48.818;9.312;2023-01-25T13:49:52;26.35;;;14.57;;
18172;SDS011;9211;48.818;9.312;2023-01-25T13:52:23;28.33;;;15.15;;
18172;SDS011;9211;48.818;9.312;2023-01-25T13:54:54;28.20;;;15.47;;
18172;SDS011;9211;48.818;9.312;2023-01-25T13:57:23;30.45;;;15.90;;
18172;SDS011;9211;48.818;9.312;2023-01-25T13:59:58;31.60;;;16.50;;
18172;SDS011;9211;48.818;9.312;2023-01-25T14:02:29;32.78;;;16.95;;
18172;SDS011;9211;48.818;9.312;2023-01-25T14:04:57;30.33;;;16.67;;
18172;SDS011;9211;48.818;9.312;2023-01-25T14:07:27;33.60;;;17.03;;
18172;SDS011;9211;48.818;9.312;2023-01-25T14:10:01;31.43;;;16.77;;
18172;SDS011;9211;48.818;9.312;2023-01-25T14:12:33;33.78;;;17.52;;
18172;SDS011;9211;48.818;9.312;2023-01-25T14:15:17;33.63;;;17.23;;
18172;SDS011;9211;48.818;9.312;2023-01-25T14:18:02;32.37;;;17.40;;
18172;SDS011;9211;48.818;9.312;2023-01-25T14:20:30;37.33;;;18.55;;
18172;SDS011;9211;48.818;9.312;2023-01-25T14:22:57;32.17;;;16.83;;
18172;SDS011;9211;48.818;9.312;2023-01-25T14:25:25;30.92;;;16.98;;
18172;SDS011;9211;48.818;9.312;2023-01-25T14:27:53;31.63;;;16.92;;
18172;SDS011;9211;48.818;9.312;2023-01-25T14:30:22;32.53;;;17.35;;
18172;SDS011;9211;48.818;9.312;2023-01-25T14:32:51;35.20;;;18.10;;
18172;SDS011;9211;48.818;9.312;2023-01-25T14:35:36;34.38;;;17.63;;
18172;SDS011;9211;48.818;9.312;2023-01-25T14:38:17;31.98;;;16.83;;
18172;SDS011;9211;48.818;9.312;2023-01-25T14:40:50;36.95;;;18.08;;
18172;SDS011;9211;48.818;9.312;2023-01-25T14:43:20;32.90;;;17.10;;
18172;SDS011;9211;48.818;9.312;2023-01-25T14:45:49;36.30;;;18.23;;
18172;SDS011;9211;48.818;9.312;2023-01-25T14:48:32;34.08;;;18.05;;
18172;SDS011;9211;48.818;9.312;2023-01-25T14:51:01;36.15;;;18.55;;
18172;SDS011;9211;48.818;9.312;2023-01-25T14:53:30;38.00;;;18.17;;
18172;SDS011;9211;48.818;9.312;2023-01-25T14:55:58;36.78;;;18.67;;
18172;SDS011;9211;48.818;9.312;2023-01-25T14:58:27;35.20;;;18.25;;
18172;SDS011;9211;48.818;9.312;2023-01-25T15:00:56;36.33;;;18.98;;
18172;SDS011;9211;48.818;9.312;2023-01-25T15:03:25;36.72;;;18.05;;
18172;SDS011;9211;48.818;9.312;2023-01-25T15:05:54;34.92;;;18.42;;
18172;SDS011;9211;48.818;9.312;2023-01-25T15:08:27;37.45;;;18.75;;
18172;SDS011;9211;48.818;9.312;2023-01-25T15:10:59;35.30;;;18.52;;
18172;SDS011;9211;48.818;9.312;2023-01-25T15:13:46;34.75;;;18.35;;